createdAt,value
2023-02-14T00:00:16.481Z,78.60
2023-02-14T00:02:45.603Z,78.70
2023-02-14T00:05:14.563Z,78.70
2023-02-14T00:07:43.821Z,78.70
2023-02-14T00:10:12.958Z,79.20
2023-02-14T00:12:42.436Z,79.30
2023-02-14T00:15:23.947Z,79.40
2023-02-14T00:17:57.709Z,79.40
2023-02-14T00:20:27.394Z,79.30
2023-02-14T00:22:56.551Z,79.60
2023-02-14T00:25:25.511Z,79.80
2023-02-14T00:27:56.313Z,79.60
2023-02-14T00:30:25.294Z,79.40
2023-02-14T00:32:54.261Z,79.70
2023-02-14T00:35:23.290Z,79.60
2023-02-14T00:37:52.231Z,79.60
2023-02-14T00:40:21.227Z,79.20
2023-02-14T00:42:50.142Z,79.40
2023-02-14T00:45:20.215Z,79.30
2023-02-14T00:47:49.129Z,78.90
2023-02-14T00:50:18.199Z,78.70
2023-02-14T00:52:50.258Z,78.90
2023-02-14T00:55:22.515Z,78.70
2023-02-14T00:58:02.469Z,78.80
2023-02-14T01:00:34.283Z,78.60
2023-02-14T01:03:15.154Z,78.90
2023-02-14T01:05:44.182Z,78.40
2023-02-14T01:08:13.088Z,78.20
2023-02-14T01:10:43.211Z,77.90
2023-02-14T01:13:16.249Z,77.90
2023-02-14T01:16:01.606Z,77.70
2023-02-14T01:18:35.336Z,77.50
2023-02-14T01:21:20.920Z,77.20
2023-02-14T01:23:52.272Z,77.00
2023-02-14T01:26:22.363Z,76.30
2023-02-14T01:28:51.906Z,75.90
2023-02-14T01:31:29.575Z,75.60
2023-02-14T01:34:00.232Z,75.60
2023-02-14T01:36:35.313Z,76.10
2023-02-14T01:39:08.247Z,75.30
2023-02-14T01:41:39.227Z,75.00
2023-02-14T01:44:10.088Z,74.50
2023-02-14T01:46:40.087Z,73.70
2023-02-14T01:49:27.044Z,73.20
2023-02-14T01:52:05.008Z,72.60
2023-02-14T01:54:37.463Z,72.40
2023-02-14T01:57:11.509Z,72.30
2023-02-14T01:59:46.919Z,72.40
2023-02-14T02:02:15.947Z,72.20
2023-02-14T02:04:47.666Z,72.20
2023-02-14T02:07:21.862Z,71.80
2023-02-14T02:09:58.577Z,71.80
2023-02-14T02:12:29.775Z,71.30
2023-02-14T02:15:00.989Z,71.10
2023-02-14T02:17:42.937Z,70.90
2023-02-14T02:20:27.582Z,69.80
2023-02-14T02:23:32.379Z,69.50
2023-02-14T02:26:29.041Z,68.90
2023-02-14T02:29:00.952Z,68.50
2023-02-14T02:32:07.032Z,68.90
2023-02-14T02:35:06.640Z,68.20
2023-02-14T02:37:50.528Z,67.50
2023-02-14T02:40:48.949Z,67.80
2023-02-14T02:43:22.501Z,67.10
2023-02-14T02:46:12.570Z,67.00
2023-02-14T02:49:37.450Z,67.10
2023-02-14T02:52:35.700Z,65.70
2023-02-14T02:55:10.428Z,66.20
2023-02-14T02:57:44.087Z,65.10
2023-02-14T03:00:14.760Z,64.60
2023-02-14T03:03:07.703Z,62.10
2023-02-14T03:05:38.111Z,64.60
2023-02-14T03:08:07.705Z,63.90
2023-02-14T03:10:40.388Z,64.10
2023-02-14T03:13:24.911Z,63.70
2023-02-14T03:16:09.071Z,61.20
2023-02-14T03:19:22.291Z,63.40
2023-02-14T03:22:29.507Z,62.00
2023-02-14T03:25:07.265Z,59.60
2023-02-14T03:27:48.577Z,62.30
2023-02-14T03:30:45.364Z,61.10
2023-02-14T03:33:33.361Z,60.80
2023-02-14T03:36:08.063Z,58.90
2023-02-14T03:38:46.367Z,60.50
2023-02-14T03:41:23.052Z,59.50
2023-02-14T03:43:56.799Z,57.70
2023-02-14T03:46:34.006Z,59.10
2023-02-14T03:49:09.022Z,58.50
2023-02-14T03:51:39.013Z,57.80
2023-02-14T03:54:13.507Z,58.60
2023-02-14T03:57:17.743Z,58.90
2023-02-14T03:59:46.193Z,55.30
2023-02-14T04:02:40.533Z,53.60
2023-02-14T04:05:19.999Z,55.50
2023-02-14T04:07:52.306Z,58.00
2023-02-14T04:10:22.968Z,58.10
2023-02-14T04:12:52.565Z,56.50
2023-02-14T04:15:21.462Z,52.90
2023-02-14T04:18:08.487Z,57.70
2023-02-14T04:20:38.230Z,57.90
2023-02-14T04:23:07.144Z,57.60
2023-02-14T04:25:36.031Z,54.70
2023-02-14T04:28:04.896Z,56.90
2023-02-14T04:30:33.822Z,56.60
2023-02-14T04:33:02.730Z,56.10
2023-02-14T04:35:31.773Z,56.20
2023-02-14T04:38:02.026Z,55.80
2023-02-14T04:40:31.492Z,55.50
2023-02-14T04:43:02.498Z,55.10
2023-02-14T04:45:31.590Z,55.40
2023-02-14T04:48:00.506Z,54.90
2023-02-14T04:50:29.497Z,54.80
2023-02-14T04:52:58.412Z,54.90
2023-02-14T04:55:27.582Z,54.10
2023-02-14T04:57:56.477Z,54.20
2023-02-14T05:00:27.743Z,54.70
2023-02-14T05:02:56.650Z,54.20
2023-02-14T05:05:25.564Z,52.10
2023-02-14T05:07:54.462Z,53.20
2023-02-14T05:10:23.357Z,53.40
2023-02-14T05:12:52.293Z,53.40
2023-02-14T05:15:21.172Z,52.70
2023-02-14T05:17:50.050Z,52.90
2023-02-14T05:20:19.097Z,52.90
2023-02-14T05:22:47.953Z,52.80
2023-02-14T05:25:16.826Z,52.20
2023-02-14T05:27:45.694Z,52.60
2023-02-14T05:30:18.151Z,52.30
2023-02-14T05:32:47.127Z,52.10
2023-02-14T05:35:15.998Z,51.50
2023-02-14T05:37:45.016Z,52.30
2023-02-14T05:40:17.480Z,52.30
2023-02-14T05:42:46.637Z,52.00
2023-02-14T05:45:17.294Z,51.10
2023-02-14T05:47:46.177Z,51.30
2023-02-14T05:50:15.143Z,51.60
2023-02-14T05:52:44.288Z,50.60
2023-02-14T05:55:13.577Z,49.40
2023-02-14T05:57:42.555Z,50.70
2023-02-14T06:00:12.764Z,50.80
2023-02-14T06:02:42.027Z,50.80
2023-02-14T06:05:11.363Z,51.00
2023-02-14T06:07:40.513Z,51.00
2023-02-14T06:10:11.026Z,51.00
2023-02-14T06:12:39.895Z,50.60
2023-02-14T06:15:09.105Z,50.00
2023-02-14T06:17:38.000Z,50.20
2023-02-14T06:20:10.098Z,50.20
2023-02-14T06:22:40.359Z,50.30
2023-02-14T06:25:09.451Z,50.10
2023-02-14T06:27:38.320Z,49.10
2023-02-14T06:30:08.242Z,49.80
2023-02-14T06:32:37.257Z,49.60
2023-02-14T06:35:06.868Z,50.00
2023-02-14T06:37:36.151Z,49.80
2023-02-14T06:40:05.258Z,50.20
2023-02-14T06:42:34.246Z,48.50
2023-02-14T06:45:03.851Z,50.20
2023-02-14T06:47:34.884Z,50.30
2023-02-14T06:50:06.405Z,50.20
2023-02-14T06:52:37.211Z,50.20
2023-02-14T06:55:06.461Z,50.00
2023-02-14T06:57:35.389Z,50.10
2023-02-14T07:00:05.270Z,50.50
2023-02-14T07:02:34.254Z,50.00
2023-02-14T07:05:03.244Z,50.20
2023-02-14T07:07:32.141Z,50.00
2023-02-14T07:10:01.030Z,50.00
2023-02-14T07:12:29.920Z,49.60
2023-02-14T07:14:58.850Z,49.60
2023-02-14T07:17:27.753Z,49.70
2023-02-14T07:19:56.633Z,49.30
2023-02-14T07:22:25.561Z,49.10
2023-02-14T07:24:54.415Z,48.70
2023-02-14T07:27:23.368Z,48.50
2023-02-14T07:29:52.473Z,48.40
2023-02-14T07:32:21.521Z,48.60
2023-02-14T07:34:50.908Z,48.10
2023-02-14T07:37:20.280Z,48.40
2023-02-14T07:39:49.172Z,47.70
2023-02-14T07:42:18.204Z,48.00
2023-02-14T07:44:47.603Z,48.00
2023-02-14T07:47:16.506Z,47.20
2023-02-14T07:49:45.444Z,47.20
2023-02-14T07:52:14.361Z,47.50
2023-02-14T07:54:43.353Z,47.30
2023-02-14T07:57:12.259Z,47.20
2023-02-14T07:59:41.287Z,47.70
2023-02-14T08:02:12.574Z,47.10
2023-02-14T08:04:41.476Z,47.10
2023-02-14T08:07:10.537Z,47.30
2023-02-14T08:09:39.480Z,47.30
2023-02-14T08:12:26.762Z,47.20
2023-02-14T08:14:55.727Z,46.40
2023-02-14T08:17:24.979Z,46.90
2023-02-14T08:19:53.839Z,46.00
2023-02-14T08:22:22.744Z,46.60
2023-02-14T08:24:51.671Z,46.70
2023-02-14T08:27:20.516Z,46.60
2023-02-14T08:29:49.446Z,46.40
2023-02-14T08:32:21.960Z,46.90
2023-02-14T08:34:51.161Z,47.00
2023-02-14T08:37:20.012Z,46.80
2023-02-14T08:39:48.883Z,47.20
2023-02-14T08:42:18.052Z,47.00
2023-02-14T08:44:47.120Z,47.20
2023-02-14T08:47:16.143Z,47.10
2023-02-14T08:49:45.161Z,46.90
2023-02-14T08:52:14.028Z,47.20
2023-02-14T08:54:42.904Z,46.80
2023-02-14T08:57:11.786Z,47.00
2023-02-14T08:59:40.707Z,45.20
2023-02-14T09:02:13.140Z,46.40
2023-02-14T09:04:42.081Z,46.20
2023-02-14T09:07:12.740Z,46.20
2023-02-14T09:09:41.875Z,46.00
2023-02-14T09:12:12.112Z,46.00
2023-02-14T09:14:46.415Z,46.20
2023-02-14T09:17:16.443Z,46.20
2023-02-14T09:19:45.307Z,46.60
2023-02-14T09:22:14.251Z,45.40
2023-02-14T09:24:43.393Z,46.00
2023-02-14T09:27:12.617Z,46.20
2023-02-14T09:29:41.567Z,46.80
2023-02-14T09:32:11.095Z,46.20
2023-02-14T09:34:40.125Z,46.50
2023-02-14T09:37:29.090Z,46.70
2023-02-14T09:39:58.062Z,46.40
2023-02-14T09:42:41.990Z,46.50
2023-02-14T09:45:28.829Z,45.20
2023-02-14T09:48:00.904Z,45.70
2023-02-14T09:50:41.417Z,46.30
2023-02-14T09:53:27.652Z,46.40
2023-02-14T09:56:12.858Z,45.60
2023-02-14T09:58:47.466Z,46.70
2023-02-14T10:01:49.844Z,46.20
2023-02-14T10:04:39.802Z,43.60
2023-02-14T10:07:44.073Z,45.50
2023-02-14T10:10:24.230Z,45.30
2023-02-14T10:13:12.234Z,43.70
2023-02-14T10:15:45.710Z,46.40
2023-02-14T10:18:30.558Z,46.50
2023-02-14T10:21:04.023Z,46.20
2023-02-14T10:23:35.804Z,46.50
2023-02-14T10:26:42.407Z,46.60
2023-02-14T10:29:16.754Z,46.70
2023-02-14T10:32:03.303Z,46.40
2023-02-14T10:34:50.489Z,45.90
2023-02-14T10:37:49.607Z,46.50
2023-02-14T10:40:43.303Z,46.70
2023-02-14T10:43:20.734Z,46.70
2023-02-14T10:46:19.372Z,46.80
2023-02-14T10:49:20.434Z,46.70
2023-02-14T10:51:54.716Z,46.50
2023-02-14T10:54:27.980Z,46.60
2023-02-14T10:57:05.963Z,46.50
2023-02-14T10:59:59.139Z,46.50
2023-02-14T11:02:37.837Z,46.30
2023-02-14T11:05:07.736Z,46.60
2023-02-14T11:07:36.637Z,47.00
2023-02-14T11:10:12.147Z,47.20
2023-02-14T11:12:43.028Z,47.40
2023-02-14T11:15:40.670Z,47.40
2023-02-14T11:18:18.620Z,47.50
2023-02-14T11:21:02.987Z,47.80
2023-02-14T11:23:43.264Z,47.70
2023-02-14T11:26:19.606Z,48.10
2023-02-14T11:29:00.529Z,48.20
2023-02-14T11:31:39.108Z,48.30
2023-02-14T11:34:35.337Z,48.60
2023-02-14T11:37:07.766Z,48.80
2023-02-14T11:39:37.408Z,49.00
2023-02-14T11:42:07.368Z,49.20
2023-02-14T11:44:38.402Z,49.40
2023-02-14T11:47:44.128Z,49.60
2023-02-14T11:50:27.089Z,50.00
2023-02-14T11:52:58.171Z,50.00
2023-02-14T11:55:31.050Z,50.10
2023-02-14T11:58:00.768Z,50.30
2023-02-14T12:00:32.300Z,50.50
2023-02-14T12:03:06.690Z,51.30
2023-02-14T12:05:58.283Z,50.80
2023-02-14T12:08:30.595Z,51.40
2023-02-14T12:11:19.165Z,51.20
2023-02-14T12:13:59.301Z,51.40
2023-02-14T12:16:40.175Z,51.80
2023-02-14T12:19:29.104Z,52.10
2023-02-14T12:22:08.624Z,52.40
2023-02-14T12:24:58.270Z,52.70
2023-02-14T12:27:34.730Z,52.60
2023-02-14T12:30:15.245Z,52.70
2023-02-14T12:32:51.399Z,52.70
2023-02-14T12:35:41.981Z,53.10
2023-02-14T12:38:40.625Z,53.80
2023-02-14T12:41:16.106Z,54.80
2023-02-14T12:43:58.963Z,54.20
2023-02-14T12:46:59.928Z,54.30
2023-02-14T12:49:32.087Z,54.50
2023-02-14T12:52:37.470Z,54.50
2023-02-14T12:55:24.832Z,55.90
2023-02-14T12:57:58.308Z,55.00
2023-02-14T13:00:37.856Z,55.30
2023-02-14T13:03:25.248Z,57.10
2023-02-14T13:06:22.462Z,55.70
2023-02-14T13:09:23.285Z,55.80
2023-02-14T13:12:12.777Z,56.70
2023-02-14T13:15:05.809Z,56.50
2023-02-14T13:18:01.076Z,58.60
2023-02-14T13:20:41.909Z,56.80
2023-02-14T13:23:25.779Z,56.90
2023-02-14T13:26:11.607Z,61.80
2023-02-14T13:28:44.594Z,58.30
2023-02-14T13:31:16.117Z,59.40
2023-02-14T13:33:50.449Z,58.80
2023-02-14T13:36:19.798Z,58.00
2023-02-14T13:41:42.960Z,58.40
2023-02-14T13:44:11.957Z,59.50
2023-02-14T13:46:40.817Z,58.60
2023-02-14T13:49:24.802Z,59.20
2023-02-14T13:51:56.350Z,59.20
2023-02-14T13:54:49.819Z,59.20
2023-02-14T13:57:40.858Z,62.20
2023-02-14T14:00:18.608Z,62.30
2023-02-14T14:02:57.545Z,61.70
2023-02-14T14:05:36.528Z,59.80
2023-02-14T14:08:26.049Z,60.30
2023-02-14T14:11:04.158Z,61.50
2023-02-14T14:13:42.283Z,60.00
2023-02-14T14:16:29.724Z,63.00
2023-02-14T14:19:10.696Z,61.50
2023-02-14T14:21:45.100Z,60.60
2023-02-14T14:24:16.744Z,61.00
2023-02-14T14:26:50.198Z,61.70
2023-02-14T14:29:37.483Z,61.40
2023-02-14T14:32:31.541Z,61.80
2023-02-14T14:35:00.495Z,61.90
2023-02-14T14:37:32.220Z,61.60
2023-02-14T14:40:03.588Z,61.60
2023-02-14T14:42:38.740Z,63.10
2023-02-14T14:45:24.377Z,62.10
2023-02-14T14:47:56.796Z,62.80
2023-02-14T14:50:32.501Z,63.10
2023-02-14T14:53:07.745Z,63.10
2023-02-14T14:55:39.368Z,63.50
2023-02-14T14:58:28.770Z,63.50
2023-02-14T15:00:57.723Z,65.60
2023-02-14T15:03:29.568Z,65.50
2023-02-14T15:06:17.763Z,64.00
2023-02-14T15:08:47.632Z,65.70
2023-02-14T15:11:49.235Z,64.30
2023-02-14T15:14:22.797Z,66.10
2023-02-14T15:17:07.920Z,64.00
2023-02-14T15:19:43.043Z,64.90
2023-02-14T15:22:27.968Z,67.80
2023-02-14T15:24:57.437Z,65.80
2023-02-14T15:27:28.532Z,65.50
2023-02-14T15:30:24.710Z,66.30
2023-02-14T15:32:55.317Z,66.00
2023-02-14T15:35:29.388Z,65.30
2023-02-14T15:38:01.848Z,67.80
2023-02-14T15:40:33.006Z,66.50
2023-02-14T15:43:26.066Z,66.00
2023-02-14T15:45:59.082Z,66.10
2023-02-14T15:48:34.513Z,65.80
2023-02-14T15:51:07.406Z,65.40
2023-02-14T15:53:46.766Z,65.40
2023-02-14T15:56:36.913Z,65.70
2023-02-14T15:59:14.596Z,66.50
2023-02-14T16:01:49.920Z,66.30
2023-02-14T16:04:26.339Z,65.90
2023-02-14T16:07:25.676Z,66.70
2023-02-14T16:10:34.693Z,67.30
2023-02-14T16:13:19.083Z,69.30
2023-02-14T16:16:10.775Z,66.80
2023-02-14T16:18:51.172Z,66.60
2023-02-14T16:21:33.340Z,67.40
2023-02-14T16:24:08.279Z,68.70
2023-02-14T16:26:39.780Z,66.70
2023-02-14T16:29:10.654Z,67.10
2023-02-14T16:32:14.172Z,67.50
2023-02-14T16:34:37.570Z,67.30
2023-02-14T16:37:19.594Z,67.30
2023-02-14T16:39:49.273Z,67.00
2023-02-14T16:42:19.342Z,66.80
2023-02-14T16:44:48.909Z,67.40
2023-02-14T16:47:19.670Z,68.30
2023-02-14T16:49:48.976Z,68.00
2023-02-14T16:52:25.003Z,68.30
2023-02-14T16:54:54.621Z,67.40
2023-02-14T16:57:30.612Z,67.40
2023-02-14T16:59:59.546Z,67.40
2023-02-14T17:02:29.703Z,67.70
2023-02-14T17:04:58.633Z,68.60
2023-02-14T17:07:30.651Z,68.10
2023-02-14T17:12:34.482Z,67.50
2023-02-14T17:15:09.646Z,71.10
2023-02-14T17:17:39.164Z,67.00
2023-02-14T17:20:12.099Z,67.90
2023-02-14T17:22:43.960Z,68.30
2023-02-14T17:25:12.929Z,68.30
2023-02-14T17:27:45.272Z,68.10
2023-02-14T17:30:15.648Z,68.20
2023-02-14T17:32:45.062Z,68.40
2023-02-14T17:35:15.568Z,68.70
2023-02-14T17:37:44.833Z,69.10
2023-02-14T17:40:15.642Z,68.50
2023-02-14T17:42:44.816Z,68.40
2023-02-14T17:45:13.775Z,68.50
2023-02-14T17:47:44.356Z,68.30
2023-02-14T17:50:14.399Z,68.70
2023-02-14T17:52:44.190Z,67.90
2023-02-14T17:55:14.202Z,67.90
2023-02-14T17:57:43.271Z,69.30
2023-02-14T18:00:12.955Z,68.30
2023-02-14T18:02:42.378Z,68.40
2023-02-14T18:05:11.379Z,68.60
2023-02-14T18:07:41.038Z,69.70
2023-02-14T18:10:10.339Z,70.60
2023-02-14T18:12:39.486Z,69.50
2023-02-14T18:15:08.859Z,69.80
2023-02-14T18:17:37.904Z,69.00
2023-02-14T18:20:07.695Z,70.00
2023-02-14T18:22:37.875Z,68.40
2023-02-14T18:25:07.131Z,68.80
2023-02-14T18:27:36.044Z,68.60
2023-02-14T18:30:05.237Z,68.80
2023-02-14T18:32:34.180Z,69.50
2023-02-14T18:35:03.063Z,69.60
2023-02-14T18:37:32.007Z,69.70
2023-02-14T18:40:00.900Z,68.70
2023-02-14T18:42:29.869Z,68.80
2023-02-14T18:44:58.732Z,69.30
2023-02-14T18:47:27.653Z,70.10
2023-02-14T18:49:56.512Z,69.00
2023-02-14T18:52:25.812Z,68.50
2023-02-14T18:54:54.755Z,69.50
2023-02-14T18:57:23.749Z,68.90
2023-02-14T18:59:52.903Z,69.00
2023-02-14T19:02:22.970Z,68.80
2023-02-14T19:04:51.833Z,68.70
2023-02-14T19:07:20.828Z,69.00
2023-02-14T19:09:49.676Z,69.60
2023-02-14T19:12:18.588Z,69.10
2023-02-14T19:14:47.554Z,69.40
2023-02-14T19:17:17.277Z,69.40
2023-02-14T19:19:46.660Z,69.30
2023-02-14T19:22:15.605Z,69.80
2023-02-14T19:24:44.590Z,69.40
2023-02-14T19:27:13.510Z,69.00
2023-02-14T19:29:42.590Z,69.30
2023-02-14T19:32:11.607Z,69.20
2023-02-14T19:34:41.100Z,69.00
2023-02-14T19:37:10.042Z,69.10
2023-02-14T19:39:39.017Z,70.10
2023-02-14T19:42:08.025Z,69.60
2023-02-14T19:44:37.021Z,69.00
2023-02-14T19:47:18.962Z,69.50
2023-02-14T19:49:52.746Z,69.10
2023-02-14T19:52:28.478Z,68.90
2023-02-14T19:54:58.417Z,69.50
2023-02-14T19:57:27.448Z,69.00
2023-02-14T19:59:56.369Z,69.00
2023-02-14T20:02:25.811Z,69.50
2023-02-14T20:04:59.952Z,69.90
2023-02-14T20:07:28.989Z,69.50
2023-02-14T20:09:57.870Z,69.30
2023-02-14T20:12:26.765Z,69.40
2023-02-14T20:14:55.743Z,69.00
2023-02-14T20:17:24.680Z,69.10
2023-02-14T20:19:54.059Z,68.90
2023-02-14T20:22:24.185Z,68.80
2023-02-14T20:24:53.077Z,69.30
2023-02-14T20:27:22.172Z,69.50
2023-02-14T20:29:52.804Z,69.40
2023-02-14T20:32:21.761Z,69.60
2023-02-14T20:34:52.120Z,69.80
2023-02-14T20:37:21.030Z,69.90
2023-02-14T20:39:50.251Z,70.10
2023-02-14T20:42:19.167Z,70.20
2023-02-14T20:44:48.105Z,70.40
2023-02-14T20:47:18.175Z,70.40
2023-02-14T20:49:47.044Z,70.80
2023-02-14T20:52:15.934Z,70.60
2023-02-14T20:54:45.339Z,70.70
2023-02-14T20:57:14.390Z,70.90
2023-02-14T20:59:45.799Z,70.80
2023-02-14T21:02:14.785Z,71.20
2023-02-14T21:04:43.666Z,71.20
2023-02-14T21:07:12.607Z,71.10
2023-02-14T21:09:41.532Z,71.20
2023-02-14T21:12:10.423Z,71.20
2023-02-14T21:14:39.328Z,71.00
2023-02-14T21:17:08.296Z,71.50
2023-02-14T21:19:37.237Z,71.50
2023-02-14T21:22:06.426Z,71.40
2023-02-14T21:24:35.309Z,71.20
2023-02-14T21:27:04.307Z,71.60
2023-02-14T21:29:33.250Z,71.30
2023-02-14T21:32:03.771Z,71.60
2023-02-14T21:34:32.839Z,71.40
2023-02-14T21:37:01.729Z,71.50
2023-02-14T21:39:32.136Z,71.80
2023-02-14T21:42:02.052Z,71.60
2023-02-14T21:44:49.253Z,71.90
2023-02-14T21:47:18.139Z,71.80
2023-02-14T21:50:05.377Z,71.60
2023-02-14T21:52:34.508Z,71.50
2023-02-14T21:55:04.904Z,71.60
2023-02-14T21:57:33.786Z,71.30
2023-02-14T22:00:02.705Z,71.80
2023-02-14T22:02:32.091Z,71.80
2023-02-14T22:05:01.139Z,71.20
2023-02-14T22:07:30.533Z,71.60
2023-02-14T22:09:59.745Z,71.40
2023-02-14T22:12:29.465Z,71.40
2023-02-14T22:15:01.390Z,71.40
2023-02-14T22:17:30.262Z,71.30
2023-02-14T22:19:59.214Z,71.50
2023-02-14T22:22:28.154Z,71.40
2023-02-14T22:24:57.039Z,71.80
2023-02-14T22:27:26.114Z,71.60
2023-02-14T22:29:55.072Z,71.30
2023-02-14T22:32:24.087Z,71.50
2023-02-14T22:34:53.035Z,71.90
2023-02-14T22:37:22.002Z,72.50
2023-02-14T22:39:51.329Z,71.70
2023-02-14T22:42:20.201Z,72.00
2023-02-14T22:44:49.651Z,71.90
2023-02-14T22:47:18.848Z,71.80
2023-02-14T22:49:47.780Z,72.20
2023-02-14T22:52:17.015Z,72.30
2023-02-14T22:54:45.934Z,72.00
2023-02-14T22:57:14.813Z,71.90
2023-02-14T22:59:43.689Z,73.20
2023-02-14T23:02:12.719Z,72.20
2023-02-14T23:04:42.054Z,72.10
2023-02-14T23:07:12.608Z,72.00
2023-02-14T23:09:41.536Z,72.40
2023-02-14T23:12:30.210Z,72.20
2023-02-14T23:15:25.236Z,71.90
2023-02-14T23:18:12.521Z,72.10
2023-02-14T23:20:59.609Z,72.50
2023-02-14T23:23:35.212Z,72.10
2023-02-14T23:26:04.193Z,72.00
2023-02-14T23:28:33.095Z,72.20
2023-02-14T23:31:03.005Z,72.20
2023-02-14T23:33:31.961Z,72.10
2023-02-14T23:36:05.030Z,72.10
2023-02-14T23:38:33.930Z,72.20
2023-02-14T23:41:29.047Z,72.10
2023-02-14T23:43:58.113Z,72.00
2023-02-14T23:46:27.045Z,72.20
2023-02-14T23:48:56.529Z,72.40
2023-02-14T23:51:26.107Z,72.40
2023-02-14T23:53:56.097Z,72.40
2023-02-14T23:56:25.057Z,72.60
2023-02-14T23:58:53.951Z,72.90
